sensor_id;sensor_type;location;lat;lon;timestamp;temperature;humidity
20366;DHT22;10341;49.894;8.822;2023-04-01T00:02:57;10.60;99.90
20366;DHT22;10341;49.894;8.822;2023-04-01T00:08:17;10.60;99.90
20366;DHT22;10341;49.894;8.822;2023-04-01T00:13:37;10.60;99.90
20366;DHT22;10341;49.894;8.822;2023-04-01T00:18:56;10.70;99.90
20366;DHT22;10341;49.894;8.822;2023-04-01T00:24:15;10.60;99.90
20366;DHT22;10341;49.894;8.822;2023-04-01T00:29:35;10.50;99.90
20366;DHT22;10341;49.894;8.822;2023-04-01T00:34:54;10.50;99.90
20366;DHT22;10341;49.894;8.822;2023-04-01T00:40:35;10.50;99.90
20366;DHT22;10341;49.894;8.822;2023-04-01T00:45:55;10.50;99.90
20366;DHT22;10341;49.894;8.822;2023-04-01T00:51:18;10.50;99.90
20366;DHT22;10341;49.894;8.822;2023-04-01T00:56:49;10.50;99.90
20366;DHT22;10341;49.894;8.822;2023-04-01T01:02:15;10.60;99.90
20366;DHT22;10341;49.894;8.822;2023-04-01T01:07:44;10.60;99.90
20366;DHT22;10341;49.894;8.822;2023-04-01T01:35:34;10.60;99.90
20366;DHT22;10341;49.894;8.822;2023-04-01T01:41:03;10.70;99.90
20366;DHT22;10341;49.894;8.822;2023-04-01T01:46:26;10.70;99.90
20366;DHT22;10341;49.894;8.822;2023-04-01T01:51:46;10.70;99.90
20366;DHT22;10341;49.894;8.822;2023-04-01T01:57:08;10.70;99.90
20366;DHT22;10341;49.894;8.822;2023-04-01T02:02:32;10.60;99.90
20366;DHT22;10341;49.894;8.822;2023-04-01T02:08:35;10.70;99.90
20366;DHT22;10341;49.894;8.822;2023-04-01T02:14:04;10.70;99.90
20366;DHT22;10341;49.894;8.822;2023-04-01T02:19:27;10.70;99.90
20366;DHT22;10341;49.894;8.822;2023-04-01T02:24:52;10.70;99.90
20366;DHT22;10341;49.894;8.822;2023-04-01T02:30:14;10.70;99.90
20366;DHT22;10341;49.894;8.822;2023-04-01T02:35:36;10.70;99.90
20366;DHT22;10341;49.894;8.822;2023-04-01T02:40:59;10.70;99.90
20366;DHT22;10341;49.894;8.822;2023-04-01T02:46:19;10.60;99.90
20366;DHT22;10341;49.894;8.822;2023-04-01T02:51:39;10.60;99.90
20366;DHT22;10341;49.894;8.822;2023-04-01T02:56:59;10.60;99.90
20366;DHT22;10341;49.894;8.822;2023-04-01T03:02:18;10.60;99.90
20366;DHT22;10341;49.894;8.822;2023-04-01T03:07:38;10.60;99.90
20366;DHT22;10341;49.894;8.822;2023-04-01T03:12:57;10.60;99.90
20366;DHT22;10341;49.894;8.822;2023-04-01T03:18:17;10.60;99.90
20366;DHT22;10341;49.894;8.822;2023-04-01T03:23:37;10.60;99.90
20366;DHT22;10341;49.894;8.822;2023-04-01T03:28:56;10.50;99.90
20366;DHT22;10341;49.894;8.822;2023-04-01T03:34:16;10.50;99.90
20366;DHT22;10341;49.894;8.822;2023-04-01T03:39:35;10.50;99.90
20366;DHT22;10341;49.894;8.822;2023-04-01T03:44:55;10.40;99.90
20366;DHT22;10341;49.894;8.822;2023-04-01T03:50:15;10.40;99.90
20366;DHT22;10341;49.894;8.822;2023-04-01T03:55:35;10.40;99.90
20366;DHT22;10341;49.894;8.822;2023-04-01T04:00:55;10.40;99.90
20366;DHT22;10341;49.894;8.822;2023-04-01T04:06:15;10.40;99.90
20366;DHT22;10341;49.894;8.822;2023-04-01T04:11:35;10.30;99.90
20366;DHT22;10341;49.894;8.822;2023-04-01T04:16:55;10.40;99.90
20366;DHT22;10341;49.894;8.822;2023-04-01T04:22:14;10.40;99.90
20366;DHT22;10341;49.894;8.822;2023-04-01T04:27:34;10.40;99.90
20366;DHT22;10341;49.894;8.822;2023-04-01T04:32:59;10.40;99.90
20366;DHT22;10341;49.894;8.822;2023-04-01T04:38:20;10.50;99.90
20366;DHT22;10341;49.894;8.822;2023-04-01T04:43:40;10.50;99.90
20366;DHT22;10341;49.894;8.822;2023-04-01T04:49:00;10.50;99.90
20366;DHT22;10341;49.894;8.822;2023-04-01T04:54:20;10.50;99.90
20366;DHT22;10341;49.894;8.822;2023-04-01T04:59:48;10.50;99.90
20366;DHT22;10341;49.894;8.822;2023-04-01T05:05:16;10.50;99.90
20366;DHT22;10341;49.894;8.822;2023-04-01T05:10:36;10.50;99.90
20366;DHT22;10341;49.894;8.822;2023-04-01T05:15:55;10.50;99.90
20366;DHT22;10341;49.894;8.822;2023-04-01T05:21:15;10.50;99.90
20366;DHT22;10341;49.894;8.822;2023-04-01T05:26:36;10.50;99.90
20366;DHT22;10341;49.894;8.822;2023-04-01T05:31:56;10.60;99.90
20366;DHT22;10341;49.894;8.822;2023-04-01T05:37:15;10.50;99.90
20366;DHT22;10341;49.894;8.822;2023-04-01T05:42:34;10.50;99.90
20366;DHT22;10341;49.894;8.822;2023-04-01T05:47:54;10.60;99.90
20366;DHT22;10341;49.894;8.822;2023-04-01T05:53:14;10.60;99.90
20366;DHT22;10341;49.894;8.822;2023-04-01T05:58:36;10.60;99.90
20366;DHT22;10341;49.894;8.822;2023-04-01T06:03:55;10.60;99.90
20366;DHT22;10341;49.894;8.822;2023-04-01T06:09:17;10.60;99.90
20366;DHT22;10341;49.894;8.822;2023-04-01T06:14:57;10.60;99.90
20366;DHT22;10341;49.894;8.822;2023-04-01T06:20:50;10.50;99.90
20366;DHT22;10341;49.894;8.822;2023-04-01T06:26:34;10.20;99.90
20366;DHT22;10341;49.894;8.822;2023-04-01T06:43:53;10.00;99.90
20366;DHT22;10341;49.894;8.822;2023-04-01T06:50:00;9.90;99.90
20366;DHT22;10341;49.894;8.822;2023-04-01T06:55:46;10.00;99.90
20366;DHT22;10341;49.894;8.822;2023-04-01T07:01:18;10.10;99.90
20366;DHT22;10341;49.894;8.822;2023-04-01T07:06:47;10.20;99.90
20366;DHT22;10341;49.894;8.822;2023-04-01T07:12:18;10.20;99.90
20366;DHT22;10341;49.894;8.822;2023-04-01T07:18:40;10.10;99.90
20366;DHT22;10341;49.894;8.822;2023-04-01T07:24:06;10.00;99.90
20366;DHT22;10341;49.894;8.822;2023-04-01T07:29:30;9.90;99.90
20366;DHT22;10341;49.894;8.822;2023-04-01T07:35:07;9.90;99.90
20366;DHT22;10341;49.894;8.822;2023-04-01T07:52:14;10.10;99.90
20366;DHT22;10341;49.894;8.822;2023-04-01T07:57:53;10.20;99.90
20366;DHT22;10341;49.894;8.822;2023-04-01T08:08:43;10.50;99.90
20366;DHT22;10341;49.894;8.822;2023-04-01T08:14:28;10.50;99.90
20366;DHT22;10341;49.894;8.822;2023-04-01T08:20:33;10.50;99.90
20366;DHT22;10341;49.894;8.822;2023-04-01T08:37:17;10.70;99.90
20366;DHT22;10341;49.894;8.822;2023-04-01T08:48:59;10.60;99.90
20366;DHT22;10341;49.894;8.822;2023-04-01T09:01:09;10.50;99.90
20366;DHT22;10341;49.894;8.822;2023-04-01T09:07:09;10.50;99.90
20366;DHT22;10341;49.894;8.822;2023-04-01T09:52:26;10.70;99.90
20366;DHT22;10341;49.894;8.822;2023-04-01T10:04:12;10.80;99.90
20366;DHT22;10341;49.894;8.822;2023-04-01T10:15:46;10.90;99.90
20366;DHT22;10341;49.894;8.822;2023-04-01T10:21:37;10.70;99.90
20366;DHT22;10341;49.894;8.822;2023-04-01T11:08:15;11.50;99.90
20366;DHT22;10341;49.894;8.822;2023-04-01T11:25:19;11.80;99.90
20366;DHT22;10341;49.894;8.822;2023-04-01T11:42:57;12.10;99.90
20366;DHT22;10341;49.894;8.822;2023-04-01T12:17:26;11.80;99.90
20366;DHT22;10341;49.894;8.822;2023-04-01T12:28:46;11.80;99.90
20366;DHT22;10341;49.894;8.822;2023-04-01T12:34:49;11.90;99.90
20366;DHT22;10341;49.894;8.822;2023-04-01T12:40:24;11.90;99.90
20366;DHT22;10341;49.894;8.822;2023-04-01T12:57:30;12.40;99.90
20366;DHT22;10341;49.894;8.822;2023-04-01T13:09:01;12.90;99.90
20366;DHT22;10341;49.894;8.822;2023-04-01T13:14:44;12.80;99.90
20366;DHT22;10341;49.894;8.822;2023-04-01T13:26:03;12.60;99.90
20366;DHT22;10341;49.894;8.822;2023-04-01T13:37:13;12.20;99.90
20366;DHT22;10341;49.894;8.822;2023-04-01T13:42:46;12.10;99.90
20366;DHT22;10341;49.894;8.822;2023-04-01T14:05:36;12.20;99.90
20366;DHT22;10341;49.894;8.822;2023-04-01T14:11:20;12.40;99.90
20366;DHT22;10341;49.894;8.822;2023-04-01T14:22:51;12.80;99.90
20366;DHT22;10341;49.894;8.822;2023-04-01T14:28:34;13.20;99.90
20366;DHT22;10341;49.894;8.822;2023-04-01T14:50:44;13.00;99.90
20366;DHT22;10341;49.894;8.822;2023-04-01T14:56:05;13.10;99.90
20366;DHT22;10341;49.894;8.822;2023-04-01T15:01:46;13.20;99.90
20366;DHT22;10341;49.894;8.822;2023-04-01T15:18:07;12.30;99.90
20366;DHT22;10341;49.894;8.822;2023-04-01T15:24:06;12.20;99.90
20366;DHT22;10341;49.894;8.822;2023-04-01T15:40:57;12.00;99.90
20366;DHT22;10341;49.894;8.822;2023-04-01T15:46:44;11.90;99.90
20366;DHT22;10341;49.894;8.822;2023-04-01T15:52:23;11.80;99.90
20366;DHT22;10341;49.894;8.822;2023-04-01T16:03:42;11.80;99.90
20366;DHT22;10341;49.894;8.822;2023-04-01T16:15:15;11.70;99.90
20366;DHT22;10341;49.894;8.822;2023-04-01T16:20:54;11.60;99.90
20366;DHT22;10341;49.894;8.822;2023-04-01T16:26:47;11.50;99.90
20366;DHT22;10341;49.894;8.822;2023-04-01T16:32:31;11.50;99.90
20366;DHT22;10341;49.894;8.822;2023-04-01T16:38:00;11.50;99.90
20366;DHT22;10341;49.894;8.822;2023-04-01T16:43:41;11.50;99.90
20366;DHT22;10341;49.894;8.822;2023-04-01T16:49:47;11.40;99.90
20366;DHT22;10341;49.894;8.822;2023-04-01T16:55:19;11.40;99.90
20366;DHT22;10341;49.894;8.822;2023-04-01T17:00:50;11.30;99.90
20366;DHT22;10341;49.894;8.822;2023-04-01T17:12:15;11.10;99.90
20366;DHT22;10341;49.894;8.822;2023-04-01T17:23:51;11.10;99.90
20366;DHT22;10341;49.894;8.822;2023-04-01T17:29:31;11.10;99.90
20366;DHT22;10341;49.894;8.822;2023-04-01T17:46:05;10.90;99.90
20366;DHT22;10341;49.894;8.822;2023-04-01T17:51:53;10.80;99.90
20366;DHT22;10341;49.894;8.822;2023-04-01T17:57:39;10.80;99.90
20366;DHT22;10341;49.894;8.822;2023-04-01T18:19:46;10.80;99.90
20366;DHT22;10341;49.894;8.822;2023-04-01T18:36:50;10.80;99.90
20366;DHT22;10341;49.894;8.822;2023-04-01T18:48:14;10.70;99.90
20366;DHT22;10341;49.894;8.822;2023-04-01T18:53:37;10.70;99.90
20366;DHT22;10341;49.894;8.822;2023-04-01T19:05:08;10.50;99.90
20366;DHT22;10341;49.894;8.822;2023-04-01T19:10:40;10.50;99.90
20366;DHT22;10341;49.894;8.822;2023-04-01T19:16:24;10.40;99.90
20366;DHT22;10341;49.894;8.822;2023-04-01T19:21:57;10.30;99.90
20366;DHT22;10341;49.894;8.822;2023-04-01T19:27:29;10.20;99.90
20366;DHT22;10341;49.894;8.822;2023-04-01T19:38:31;10.20;99.90
20366;DHT22;10341;49.894;8.822;2023-04-01T19:55:35;10.20;99.90
20366;DHT22;10341;49.894;8.822;2023-04-01T20:01:00;10.20;99.90
20366;DHT22;10341;49.894;8.822;2023-04-01T20:06:35;10.10;99.90
20366;DHT22;10341;49.894;8.822;2023-04-01T20:12:18;10.10;99.90
20366;DHT22;10341;49.894;8.822;2023-04-01T20:17:43;10.10;99.90
20366;DHT22;10341;49.894;8.822;2023-04-01T20:23:41;10.10;99.90
20366;DHT22;10341;49.894;8.822;2023-04-01T20:40:37;10.00;99.90
20366;DHT22;10341;49.894;8.822;2023-04-01T20:51:53;10.10;99.90
20366;DHT22;10341;49.894;8.822;2023-04-01T20:57:34;10.00;99.90
20366;DHT22;10341;49.894;8.822;2023-04-01T21:08:51;10.00;99.90
20366;DHT22;10341;49.894;8.822;2023-04-01T21:14:47;10.10;99.90
20366;DHT22;10341;49.894;8.822;2023-04-01T21:20:35;10.00;99.90
20366;DHT22;10341;49.894;8.822;2023-04-01T21:26:04;10.00;99.90
20366;DHT22;10341;49.894;8.822;2023-04-01T21:31:44;10.00;99.90
20366;DHT22;10341;49.894;8.822;2023-04-01T21:53:45;9.90;99.90
20366;DHT22;10341;49.894;8.822;2023-04-01T22:05:13;10.00;99.90
20366;DHT22;10341;49.894;8.822;2023-04-01T22:11:04;9.90;99.90
20366;DHT22;10341;49.894;8.822;2023-04-01T22:16:57;10.00;99.90
20366;DHT22;10341;49.894;8.822;2023-04-01T22:22:21;10.00;99.90
20366;DHT22;10341;49.894;8.822;2023-04-01T22:27:51;9.90;99.90
20366;DHT22;10341;49.894;8.822;2023-04-01T22:33:12;10.00;99.90
20366;DHT22;10341;49.894;8.822;2023-04-01T22:43:56;9.90;99.90
20366;DHT22;10341;49.894;8.822;2023-04-01T22:55:24;9.90;99.90
20366;DHT22;10341;49.894;8.822;2023-04-01T23:00:48;9.90;99.90
20366;DHT22;10341;49.894;8.822;2023-04-01T23:06:42;9.90;99.90
20366;DHT22;10341;49.894;8.822;2023-04-01T23:12:05;9.90;99.90
20366;DHT22;10341;49.894;8.822;2023-04-01T23:28:44;9.90;99.90
20366;DHT22;10341;49.894;8.822;2023-04-01T23:39:36;9.80;99.90
20366;DHT22;10341;49.894;8.822;2023-04-01T23:45:03;9.80;99.90
20366;DHT22;10341;49.894;8.822;2023-04-01T23:50:24;9.70;99.90
20366;DHT22;10341;49.894;8.822;2023-04-01T23:55:44;9.60;99.90
